Terminal Aerodrome Forecast
Issued by NWS

Home | Current Version | Previous Version | Text Only | Print | Product List | Glossary On
Versions: 1 2 3 4 5 6 7 8 9 10 11 12 13 14 15 16 17 18
000
FTUS44 KLZK 250000 AAA
TAFBPK
TAF AMD
KBPK 250015Z 2500/2524 20010KT P6SM VCSH SCT025 OVC080
      TEMPO 2500/2504 BKN025
     FM250400 29010G20KT P6SM VCSH BKN040 OVC080
     FM250600 29009KT P6SM SCT100
     FM250800 29006KT P6SM SKC
     FM251300 27007KT P6SM SCT250=

USA.gov is the U.S. government's official web portal to all federal, state and local government web resources and services.